sensor_id;sensor_type;location;lat;lon;timestamp;P1;durP1;ratioP1;P2;durP2;ratioP2
47856;SDS011;33618;49.972;8.242;2023-04-24T00:01:59;2.33;;;1.08;;
47856;SDS011;33618;49.972;8.242;2023-04-24T00:04:27;2.33;;;1.40;;
47856;SDS011;33618;49.972;8.242;2023-04-24T00:06:54;1.58;;;1.17;;
47856;SDS011;33618;49.972;8.242;2023-04-24T00:09:23;1.48;;;1.20;;
47856;SDS011;33618;49.972;8.242;2023-04-24T00:11:50;3.08;;;1.40;;
47856;SDS011;33618;49.972;8.242;2023-04-24T00:14:17;2.67;;;1.15;;
47856;SDS011;33618;49.972;8.242;2023-04-24T00:16:44;1.95;;;1.10;;
47856;SDS011;33618;49.972;8.242;2023-04-24T00:19:12;3.92;;;1.35;;
47856;SDS011;33618;49.972;8.242;2023-04-24T00:21:39;2.00;;;1.02;;
47856;SDS011;33618;49.972;8.242;2023-04-24T00:24:07;2.50;;;1.23;;
47856;SDS011;33618;49.972;8.242;2023-04-24T00:26:35;1.73;;;1.40;;
47856;SDS011;33618;49.972;8.242;2023-04-24T00:29:02;1.70;;;1.23;;
47856;SDS011;33618;49.972;8.242;2023-04-24T00:31:29;5.20;;;1.30;;
47856;SDS011;33618;49.972;8.242;2023-04-24T00:33:56;1.98;;;1.00;;
47856;SDS011;33618;49.972;8.242;2023-04-24T00:36:23;2.65;;;1.10;;
47856;SDS011;33618;49.972;8.242;2023-04-24T00:38:51;1.17;;;0.98;;
47856;SDS011;33618;49.972;8.242;2023-04-24T00:41:18;1.20;;;1.10;;
47856;SDS011;33618;49.972;8.242;2023-04-24T00:43:45;1.92;;;1.10;;
47856;SDS011;33618;49.972;8.242;2023-04-24T00:46:12;4.88;;;1.30;;
47856;SDS011;33618;49.972;8.242;2023-04-24T00:48:40;1.20;;;1.00;;
47856;SDS011;33618;49.972;8.242;2023-04-24T00:51:07;1.58;;;0.93;;
47856;SDS011;33618;49.972;8.242;2023-04-24T00:53:33;3.35;;;1.17;;
47856;SDS011;33618;49.972;8.242;2023-04-24T00:56:01;2.40;;;1.20;;
47856;SDS011;33618;49.972;8.242;2023-04-24T00:58:29;1.30;;;1.20;;
47856;SDS011;33618;49.972;8.242;2023-04-24T01:00:57;1.20;;;1.10;;
47856;SDS011;33618;49.972;8.242;2023-04-24T01:03:28;1.50;;;1.00;;
47856;SDS011;33618;49.972;8.242;2023-04-24T01:05:58;1.98;;;1.17;;
47856;SDS011;33618;49.972;8.242;2023-04-24T01:08:25;2.10;;;1.20;;
47856;SDS011;33618;49.972;8.242;2023-04-24T01:10:54;1.88;;;1.05;;
47856;SDS011;33618;49.972;8.242;2023-04-24T01:13:23;2.22;;;1.10;;
47856;SDS011;33618;49.972;8.242;2023-04-24T01:15:50;5.07;;;1.20;;
47856;SDS011;33618;49.972;8.242;2023-04-24T01:18:17;2.58;;;1.13;;
47856;SDS011;33618;49.972;8.242;2023-04-24T01:20:44;1.48;;;1.20;;
47856;SDS011;33618;49.972;8.242;2023-04-24T01:23:13;2.30;;;1.20;;
47856;SDS011;33618;49.972;8.242;2023-04-24T01:25:40;2.60;;;1.35;;
47856;SDS011;33618;49.972;8.242;2023-04-24T01:28:07;2.40;;;1.15;;
47856;SDS011;33618;49.972;8.242;2023-04-24T01:30:34;1.85;;;1.30;;
47856;SDS011;33618;49.972;8.242;2023-04-24T01:33:02;2.42;;;1.40;;
47856;SDS011;33618;49.972;8.242;2023-04-24T01:35:29;1.92;;;1.13;;
47856;SDS011;33618;49.972;8.242;2023-04-24T01:37:56;1.77;;;1.20;;
47856;SDS011;33618;49.972;8.242;2023-04-24T01:40:23;1.30;;;1.00;;
47856;SDS011;33618;49.972;8.242;2023-04-24T01:42:50;2.10;;;0.98;;
47856;SDS011;33618;49.972;8.242;2023-04-24T01:45:17;2.10;;;1.00;;
47856;SDS011;33618;49.972;8.242;2023-04-24T01:47:45;1.77;;;1.10;;
47856;SDS011;33618;49.972;8.242;2023-04-24T01:50:14;1.17;;;1.08;;
47856;SDS011;33618;49.972;8.242;2023-04-24T01:52:41;1.30;;;1.20;;
47856;SDS011;33618;49.972;8.242;2023-04-24T01:59:09;3.95;;;1.48;;
47856;SDS011;33618;49.972;8.242;2023-04-24T02:01:38;1.60;;;1.20;;
47856;SDS011;33618;49.972;8.242;2023-04-24T02:04:06;2.25;;;1.10;;
47856;SDS011;33618;49.972;8.242;2023-04-24T02:06:34;1.60;;;1.30;;
47856;SDS011;33618;49.972;8.242;2023-04-24T02:09:01;1.27;;;1.10;;
47856;SDS011;33618;49.972;8.242;2023-04-24T02:11:30;1.95;;;1.10;;
47856;SDS011;33618;49.972;8.242;2023-04-24T02:13:57;3.22;;;1.23;;
47856;SDS011;33618;49.972;8.242;2023-04-24T02:16:24;1.63;;;1.08;;
47856;SDS011;33618;49.972;8.242;2023-04-24T02:18:51;1.30;;;1.20;;
47856;SDS011;33618;49.972;8.242;2023-04-24T02:21:18;2.83;;;1.27;;
47856;SDS011;33618;49.972;8.242;2023-04-24T02:23:44;1.98;;;1.30;;
47856;SDS011;33618;49.972;8.242;2023-04-24T02:26:11;1.55;;;1.20;;
47856;SDS011;33618;49.972;8.242;2023-04-24T02:28:38;1.48;;;1.38;;
47856;SDS011;33618;49.972;8.242;2023-04-24T02:31:06;2.92;;;1.27;;
47856;SDS011;33618;49.972;8.242;2023-04-24T02:33:33;1.20;;;1.20;;
47856;SDS011;33618;49.972;8.242;2023-04-24T02:36:00;1.40;;;1.30;;
47856;SDS011;33618;49.972;8.242;2023-04-24T02:38:27;1.40;;;1.30;;
47856;SDS011;33618;49.972;8.242;2023-04-24T02:40:55;3.47;;;1.38;;
47856;SDS011;33618;49.972;8.242;2023-04-24T02:43:22;2.13;;;1.40;;
47856;SDS011;33618;49.972;8.242;2023-04-24T02:45:49;1.60;;;1.20;;
47856;SDS011;33618;49.972;8.242;2023-04-24T02:48:16;1.73;;;1.25;;
47856;SDS011;33618;49.972;8.242;2023-04-24T02:50:43;1.77;;;1.40;;
47856;SDS011;33618;49.972;8.242;2023-04-24T02:53:11;2.33;;;1.40;;
47856;SDS011;33618;49.972;8.242;2023-04-24T02:55:37;2.30;;;1.42;;
47856;SDS011;33618;49.972;8.242;2023-04-24T02:58:04;1.92;;;1.15;;
47856;SDS011;33618;49.972;8.242;2023-04-24T03:00:32;1.38;;;1.23;;
47856;SDS011;33618;49.972;8.242;2023-04-24T03:02:59;1.92;;;1.52;;
47856;SDS011;33618;49.972;8.242;2023-04-24T03:05:26;1.48;;;1.23;;
47856;SDS011;33618;49.972;8.242;2023-04-24T03:07:54;1.40;;;1.30;;
47856;SDS011;33618;49.972;8.242;2023-04-24T03:10:20;1.80;;;1.55;;
47856;SDS011;33618;49.972;8.242;2023-04-24T03:12:49;1.20;;;1.20;;
47856;SDS011;33618;49.972;8.242;2023-04-24T03:15:16;1.23;;;1.10;;
47856;SDS011;33618;49.972;8.242;2023-04-24T03:17:43;1.30;;;1.20;;
47856;SDS011;33618;49.972;8.242;2023-04-24T03:20:10;0.90;;;0.90;;
47856;SDS011;33618;49.972;8.242;2023-04-24T03:22:36;1.27;;;1.10;;
47856;SDS011;33618;49.972;8.242;2023-04-24T03:25:04;1.35;;;1.25;;
47856;SDS011;33618;49.972;8.242;2023-04-24T03:27:31;1.30;;;1.10;;
47856;SDS011;33618;49.972;8.242;2023-04-24T03:29:58;2.15;;;1.33;;
47856;SDS011;33618;49.972;8.242;2023-04-24T03:32:25;1.10;;;1.10;;
47856;SDS011;33618;49.972;8.242;2023-04-24T03:34:52;1.85;;;1.33;;
47856;SDS011;33618;49.972;8.242;2023-04-24T03:37:19;1.48;;;1.38;;
47856;SDS011;33618;49.972;8.242;2023-04-24T03:39:46;2.08;;;1.17;;
47856;SDS011;33618;49.972;8.242;2023-04-24T03:42:13;1.33;;;1.17;;
47856;SDS011;33618;49.972;8.242;2023-04-24T03:44:40;1.83;;;1.30;;
47856;SDS011;33618;49.972;8.242;2023-04-24T03:47:07;2.50;;;1.40;;
47856;SDS011;33618;49.972;8.242;2023-04-24T03:49:34;1.70;;;1.60;;
47856;SDS011;33618;49.972;8.242;2023-04-24T03:52:01;1.30;;;1.30;;
47856;SDS011;33618;49.972;8.242;2023-04-24T03:54:28;1.52;;;1.42;;
47856;SDS011;33618;49.972;8.242;2023-04-24T03:56:56;1.98;;;1.40;;
47856;SDS011;33618;49.972;8.242;2023-04-24T03:59:25;1.77;;;1.67;;
47856;SDS011;33618;49.972;8.242;2023-04-24T04:01:54;1.63;;;1.52;;
47856;SDS011;33618;49.972;8.242;2023-04-24T04:04:22;1.70;;;1.60;;
47856;SDS011;33618;49.972;8.242;2023-04-24T04:06:49;1.60;;;1.50;;
47856;SDS011;33618;49.972;8.242;2023-04-24T04:09:17;1.70;;;1.60;;
47856;SDS011;33618;49.972;8.242;2023-04-24T04:11:44;1.60;;;1.50;;
47856;SDS011;33618;49.972;8.242;2023-04-24T04:14:15;6.00;;;1.67;;
47856;SDS011;33618;49.972;8.242;2023-04-24T04:16:42;3.13;;;1.83;;
47856;SDS011;33618;49.972;8.242;2023-04-24T04:19:09;2.55;;;1.80;;
47856;SDS011;33618;49.972;8.242;2023-04-24T04:21:36;2.38;;;1.80;;
47856;SDS011;33618;49.972;8.242;2023-04-24T04:24:03;1.80;;;1.70;;
47856;SDS011;33618;49.972;8.242;2023-04-24T04:26:31;1.60;;;1.50;;
47856;SDS011;33618;49.972;8.242;2023-04-24T04:28:59;1.98;;;1.80;;
47856;SDS011;33618;49.972;8.242;2023-04-24T04:31:30;2.25;;;1.90;;
47856;SDS011;33618;49.972;8.242;2023-04-24T04:33:57;3.35;;;2.08;;
47856;SDS011;33618;49.972;8.242;2023-04-24T04:36:25;2.05;;;1.95;;
47856;SDS011;33618;49.972;8.242;2023-04-24T04:38:52;2.25;;;2.15;;
47856;SDS011;33618;49.972;8.242;2023-04-24T04:41:27;2.45;;;2.25;;
47856;SDS011;33618;49.972;8.242;2023-04-24T04:43:54;2.53;;;2.33;;
47856;SDS011;33618;49.972;8.242;2023-04-24T04:46:24;2.50;;;2.30;;
47856;SDS011;33618;49.972;8.242;2023-04-24T04:48:53;3.17;;;2.20;;
47856;SDS011;33618;49.972;8.242;2023-04-24T04:51:21;2.05;;;1.95;;
47856;SDS011;33618;49.972;8.242;2023-04-24T04:53:48;4.45;;;2.28;;
47856;SDS011;33618;49.972;8.242;2023-04-24T04:56:15;2.15;;;2.05;;
47856;SDS011;33618;49.972;8.242;2023-04-24T04:58:41;2.95;;;2.10;;
47856;SDS011;33618;49.972;8.242;2023-04-24T05:01:08;2.22;;;1.77;;
47856;SDS011;33618;49.972;8.242;2023-04-24T05:03:35;2.70;;;2.30;;
47856;SDS011;33618;49.972;8.242;2023-04-24T05:06:03;2.63;;;2.42;;
47856;SDS011;33618;49.972;8.242;2023-04-24T05:08:31;2.78;;;2.50;;
47856;SDS011;33618;49.972;8.242;2023-04-24T05:10:57;2.55;;;2.30;;
47856;SDS011;33618;49.972;8.242;2023-04-24T05:13:24;2.63;;;2.42;;
47856;SDS011;33618;49.972;8.242;2023-04-24T05:16:04;5.22;;;2.70;;
47856;SDS011;33618;49.972;8.242;2023-04-24T05:18:31;2.88;;;2.63;;
47856;SDS011;33618;49.972;8.242;2023-04-24T05:20:58;4.25;;;2.50;;
47856;SDS011;33618;49.972;8.242;2023-04-24T05:23:25;3.28;;;2.53;;
47856;SDS011;33618;49.972;8.242;2023-04-24T05:25:52;3.60;;;2.53;;
47856;SDS011;33618;49.972;8.242;2023-04-24T05:28:19;2.63;;;2.42;;
47856;SDS011;33618;49.972;8.242;2023-04-24T05:30:47;3.10;;;2.70;;
47856;SDS011;33618;49.972;8.242;2023-04-24T05:33:13;2.75;;;2.55;;
47856;SDS011;33618;49.972;8.242;2023-04-24T05:35:40;3.00;;;2.80;;
47856;SDS011;33618;49.972;8.242;2023-04-24T05:38:12;3.45;;;2.80;;
47856;SDS011;33618;49.972;8.242;2023-04-24T05:40:39;2.90;;;2.70;;
47856;SDS011;33618;49.972;8.242;2023-04-24T05:43:34;3.22;;;2.90;;
47856;SDS011;33618;49.972;8.242;2023-04-24T05:46:01;3.47;;;2.78;;
47856;SDS011;33618;49.972;8.242;2023-04-24T05:48:28;2.60;;;2.40;;
47856;SDS011;33618;49.972;8.242;2023-04-24T05:50:55;3.60;;;3.03;;
47856;SDS011;33618;49.972;8.242;2023-04-24T05:53:22;3.25;;;2.95;;
47856;SDS011;33618;49.972;8.242;2023-04-24T05:55:48;4.65;;;3.17;;
47856;SDS011;33618;49.972;8.242;2023-04-24T05:58:15;3.42;;;3.15;;
47856;SDS011;33618;49.972;8.242;2023-04-24T06:00:42;3.45;;;3.00;;
47856;SDS011;33618;49.972;8.242;2023-04-24T06:03:12;3.90;;;3.38;;
47856;SDS011;33618;49.972;8.242;2023-04-24T06:05:39;5.20;;;3.10;;
47856;SDS011;33618;49.972;8.242;2023-04-24T06:08:06;3.83;;;3.10;;
47856;SDS011;33618;49.972;8.242;2023-04-24T06:10:33;4.60;;;3.30;;
47856;SDS011;33618;49.972;8.242;2023-04-24T06:13:00;6.28;;;3.40;;
47856;SDS011;33618;49.972;8.242;2023-04-24T06:15:30;3.50;;;3.20;;
47856;SDS011;33618;49.972;8.242;2023-04-24T06:17:57;4.35;;;3.95;;
47856;SDS011;33618;49.972;8.242;2023-04-24T06:20:25;4.13;;;3.53;;
47856;SDS011;33618;49.972;8.242;2023-04-24T06:22:52;3.80;;;3.50;;
47856;SDS011;33618;49.972;8.242;2023-04-24T06:25:20;4.50;;;3.22;;
47856;SDS011;33618;49.972;8.242;2023-04-24T06:27:47;3.65;;;3.35;;
47856;SDS011;33618;49.972;8.242;2023-04-24T06:30:14;4.30;;;3.13;;
47856;SDS011;33618;49.972;8.242;2023-04-24T06:32:40;5.00;;;3.50;;
47856;SDS011;33618;49.972;8.242;2023-04-24T06:35:07;4.80;;;3.67;;
47856;SDS011;33618;49.972;8.242;2023-04-24T06:37:36;4.72;;;3.80;;
47856;SDS011;33618;49.972;8.242;2023-04-24T06:40:03;4.35;;;3.92;;
47856;SDS011;33618;49.972;8.242;2023-04-24T06:42:32;4.85;;;4.00;;
47856;SDS011;33618;49.972;8.242;2023-04-24T06:45:01;3.65;;;3.35;;
47856;SDS011;33618;49.972;8.242;2023-04-24T06:47:31;5.10;;;3.53;;
47856;SDS011;33618;49.972;8.242;2023-04-24T06:49:58;3.63;;;3.33;;
47856;SDS011;33618;49.972;8.242;2023-04-24T06:52:25;3.70;;;3.28;;
47856;SDS011;33618;49.972;8.242;2023-04-24T06:54:52;4.18;;;3.40;;
47856;SDS011;33618;49.972;8.242;2023-04-24T06:57:26;5.32;;;3.20;;
47856;SDS011;33618;49.972;8.242;2023-04-24T06:59:53;3.70;;;3.40;;
47856;SDS011;33618;49.972;8.242;2023-04-24T07:02:20;3.70;;;3.40;;
47856;SDS011;33618;49.972;8.242;2023-04-24T07:04:47;4.68;;;3.47;;
47856;SDS011;33618;49.972;8.242;2023-04-24T07:07:14;3.45;;;3.15;;
47856;SDS011;33618;49.972;8.242;2023-04-24T07:09:42;3.50;;;3.05;;
47856;SDS011;33618;49.972;8.242;2023-04-24T07:12:11;4.25;;;3.08;;
47856;SDS011;33618;49.972;8.242;2023-04-24T07:14:38;3.08;;;2.88;;
47856;SDS011;33618;49.972;8.242;2023-04-24T07:17:06;3.20;;;2.92;;
47856;SDS011;33618;49.972;8.242;2023-04-24T07:19:33;3.55;;;3.00;;
47856;SDS011;33618;49.972;8.242;2023-04-24T07:22:01;5.00;;;3.28;;
47856;SDS011;33618;49.972;8.242;2023-04-24T07:24:29;3.25;;;2.70;;
47856;SDS011;33618;49.972;8.242;2023-04-24T07:26:58;3.40;;;3.10;;
47856;SDS011;33618;49.972;8.242;2023-04-24T07:29:27;3.60;;;3.00;;
47856;SDS011;33618;49.972;8.242;2023-04-24T07:31:54;3.28;;;2.95;;
47856;SDS011;33618;49.972;8.242;2023-04-24T07:34:21;3.83;;;3.35;;
47856;SDS011;33618;49.972;8.242;2023-04-24T07:36:48;3.10;;;2.85;;
47856;SDS011;33618;49.972;8.242;2023-04-24T07:39:15;4.55;;;2.63;;
47856;SDS011;33618;49.972;8.242;2023-04-24T07:41:42;4.07;;;2.90;;
47856;SDS011;33618;49.972;8.242;2023-04-24T07:44:09;3.42;;;2.65;;
47856;SDS011;33618;49.972;8.242;2023-04-24T07:46:36;4.90;;;2.65;;
47856;SDS011;33618;49.972;8.242;2023-04-24T07:49:03;3.53;;;2.83;;
47856;SDS011;33618;49.972;8.242;2023-04-24T07:51:39;3.03;;;2.83;;
47856;SDS011;33618;49.972;8.242;2023-04-24T07:54:08;2.60;;;2.33;;
47856;SDS011;33618;49.972;8.242;2023-04-24T07:56:35;3.42;;;2.75;;
47856;SDS011;33618;49.972;8.242;2023-04-24T07:59:05;2.75;;;2.55;;
47856;SDS011;33618;49.972;8.242;2023-04-24T08:01:32;3.22;;;2.92;;
47856;SDS011;33618;49.972;8.242;2023-04-24T08:03:59;3.55;;;2.65;;
47856;SDS011;33618;49.972;8.242;2023-04-24T08:06:26;3.20;;;2.58;;
47856;SDS011;33618;49.972;8.242;2023-04-24T08:08:57;2.78;;;2.58;;
47856;SDS011;33618;49.972;8.242;2023-04-24T08:11:24;5.65;;;2.80;;
47856;SDS011;33618;49.972;8.242;2023-04-24T08:13:51;2.65;;;2.45;;
47856;SDS011;33618;49.972;8.242;2023-04-24T08:16:18;4.32;;;2.92;;
47856;SDS011;33618;49.972;8.242;2023-04-24T08:18:45;2.60;;;2.40;;
47856;SDS011;33618;49.972;8.242;2023-04-24T08:21:12;2.75;;;2.53;;
47856;SDS011;33618;49.972;8.242;2023-04-24T08:23:43;3.10;;;2.20;;
47856;SDS011;33618;49.972;8.242;2023-04-24T08:26:11;2.75;;;2.55;;
47856;SDS011;33618;49.972;8.242;2023-04-24T08:28:39;3.15;;;2.20;;
47856;SDS011;33618;49.972;8.242;2023-04-24T08:31:06;2.28;;;2.15;;
47856;SDS011;33618;49.972;8.242;2023-04-24T08:33:33;6.35;;;3.50;;
47856;SDS011;33618;49.972;8.242;2023-04-24T08:36:03;2.40;;;2.17;;
47856;SDS011;33618;49.972;8.242;2023-04-24T08:38:31;2.47;;;2.28;;
47856;SDS011;33618;49.972;8.242;2023-04-24T08:40:59;3.05;;;2.20;;
47856;SDS011;33618;49.972;8.242;2023-04-24T08:43:26;2.42;;;2.22;;
47856;SDS011;33618;49.972;8.242;2023-04-24T08:45:55;3.20;;;2.15;;
47856;SDS011;33618;49.972;8.242;2023-04-24T08:48:23;2.80;;;2.42;;
47856;SDS011;33618;49.972;8.242;2023-04-24T08:50:57;2.22;;;2.13;;
47856;SDS011;33618;49.972;8.242;2023-04-24T08:53:26;2.75;;;2.50;;
47856;SDS011;33618;49.972;8.242;2023-04-24T08:55:54;3.20;;;2.50;;
47856;SDS011;33618;49.972;8.242;2023-04-24T08:58:22;2.40;;;2.22;;
47856;SDS011;33618;49.972;8.242;2023-04-24T09:00:55;3.05;;;2.55;;
47856;SDS011;33618;49.972;8.242;2023-04-24T09:03:23;3.30;;;2.47;;
47856;SDS011;33618;49.972;8.242;2023-04-24T09:05:51;2.30;;;2.10;;
47856;SDS011;33618;49.972;8.242;2023-04-24T09:08:20;3.35;;;2.60;;
47856;SDS011;33618;49.972;8.242;2023-04-24T09:10:50;2.45;;;2.25;;
47856;SDS011;33618;49.972;8.242;2023-04-24T09:13:18;4.72;;;2.30;;
47856;SDS011;33618;49.972;8.242;2023-04-24T09:15:48;2.50;;;2.30;;
47856;SDS011;33618;49.972;8.242;2023-04-24T09:18:16;2.45;;;2.00;;
47856;SDS011;33618;49.972;8.242;2023-04-24T09:23:35;1.85;;;1.75;;
47856;SDS011;33618;49.972;8.242;2023-04-24T09:26:02;3.47;;;2.05;;
47856;SDS011;33618;49.972;8.242;2023-04-24T09:28:37;2.00;;;1.80;;
47856;SDS011;33618;49.972;8.242;2023-04-24T09:31:07;2.30;;;1.70;;
47856;SDS011;33618;49.972;8.242;2023-04-24T09:33:36;1.85;;;1.75;;
47856;SDS011;33618;49.972;8.242;2023-04-24T09:36:03;1.85;;;1.75;;
47856;SDS011;33618;49.972;8.242;2023-04-24T09:38:36;1.92;;;1.83;;
47856;SDS011;33618;49.972;8.242;2023-04-24T09:41:05;2.85;;;1.80;;
47856;SDS011;33618;49.972;8.242;2023-04-24T09:43:33;1.42;;;1.42;;
47856;SDS011;33618;49.972;8.242;2023-04-24T09:46:05;1.80;;;1.70;;
47856;SDS011;33618;49.972;8.242;2023-04-24T09:48:34;1.85;;;1.75;;
47856;SDS011;33618;49.972;8.242;2023-04-24T09:51:03;1.70;;;1.60;;
47856;SDS011;33618;49.972;8.242;2023-04-24T09:53:38;1.60;;;1.50;;
47856;SDS011;33618;49.972;8.242;2023-04-24T09:56:09;1.60;;;1.50;;
47856;SDS011;33618;49.972;8.242;2023-04-24T09:58:38;3.00;;;2.05;;
47856;SDS011;33618;49.972;8.242;2023-04-24T10:01:05;3.83;;;2.35;;
47856;SDS011;33618;49.972;8.242;2023-04-24T10:03:33;3.05;;;2.00;;
47856;SDS011;33618;49.972;8.242;2023-04-24T10:06:01;1.85;;;1.67;;
47856;SDS011;33618;49.972;8.242;2023-04-24T10:08:36;1.50;;;1.40;;
47856;SDS011;33618;49.972;8.242;2023-04-24T10:11:04;1.85;;;1.75;;
47856;SDS011;33618;49.972;8.242;2023-04-24T10:13:31;2.70;;;2.05;;
47856;SDS011;33618;49.972;8.242;2023-04-24T10:15:59;1.63;;;1.52;;
47856;SDS011;33618;49.972;8.242;2023-04-24T10:18:28;1.80;;;1.70;;
47856;SDS011;33618;49.972;8.242;2023-04-24T10:20:56;1.77;;;1.58;;
47856;SDS011;33618;49.972;8.242;2023-04-24T10:23:24;1.80;;;1.70;;
47856;SDS011;33618;49.972;8.242;2023-04-24T10:25:52;6.10;;;1.63;;
47856;SDS011;33618;49.972;8.242;2023-04-24T10:28:20;2.05;;;1.90;;
47856;SDS011;33618;49.972;8.242;2023-04-24T10:30:47;2.10;;;2.00;;
47856;SDS011;33618;49.972;8.242;2023-04-24T10:33:16;2.30;;;2.13;;
47856;SDS011;33618;49.972;8.242;2023-04-24T10:35:44;2.20;;;2.05;;
47856;SDS011;33618;49.972;8.242;2023-04-24T10:38:21;2.00;;;1.90;;
47856;SDS011;33618;49.972;8.242;2023-04-24T10:40:51;2.20;;;2.00;;
47856;SDS011;33618;49.972;8.242;2023-04-24T10:43:18;2.15;;;2.05;;
47856;SDS011;33618;49.972;8.242;2023-04-24T10:46:01;2.20;;;2.00;;
47856;SDS011;33618;49.972;8.242;2023-04-24T10:48:29;1.98;;;1.88;;
47856;SDS011;33618;49.972;8.242;2023-04-24T10:50:58;1.83;;;1.70;;
47856;SDS011;33618;49.972;8.242;2023-04-24T10:53:28;1.65;;;1.55;;
47856;SDS011;33618;49.972;8.242;2023-04-24T10:56:04;1.17;;;1.17;;
47856;SDS011;33618;49.972;8.242;2023-04-24T10:58:45;1.13;;;1.13;;
47856;SDS011;33618;49.972;8.242;2023-04-24T11:01:25;1.30;;;1.17;;
47856;SDS011;33618;49.972;8.242;2023-04-24T11:04:03;1.08;;;1.08;;
47856;SDS011;33618;49.972;8.242;2023-04-24T11:09:02;1.10;;;1.00;;
47856;SDS011;33618;49.972;8.242;2023-04-24T11:11:34;3.28;;;1.40;;
47856;SDS011;33618;49.972;8.242;2023-04-24T11:14:03;1.20;;;1.20;;
47856;SDS011;33618;49.972;8.242;2023-04-24T11:19:05;2.00;;;1.17;;
47856;SDS011;33618;49.972;8.242;2023-04-24T11:24:48;0.90;;;0.90;;
47856;SDS011;33618;49.972;8.242;2023-04-24T11:27:17;0.90;;;0.90;;
47856;SDS011;33618;49.972;8.242;2023-04-24T11:34:57;1.25;;;1.00;;
47856;SDS011;33618;49.972;8.242;2023-04-24T11:37:26;1.60;;;1.10;;
47856;SDS011;33618;49.972;8.242;2023-04-24T11:40:07;1.15;;;1.15;;
47856;SDS011;33618;49.972;8.242;2023-04-24T11:42:41;1.40;;;1.30;;
47856;SDS011;33618;49.972;8.242;2023-04-24T11:45:14;2.47;;;1.35;;
47856;SDS011;33618;49.972;8.242;2023-04-24T11:47:42;1.75;;;1.65;;
47856;SDS011;33618;49.972;8.242;2023-04-24T11:50:20;2.05;;;1.70;;
47856;SDS011;33618;49.972;8.242;2023-04-24T11:52:49;2.20;;;1.70;;
47856;SDS011;33618;49.972;8.242;2023-04-24T12:24:55;2.65;;;2.40;;
47856;SDS011;33618;49.972;8.242;2023-04-24T12:27:24;2.53;;;2.33;;
47856;SDS011;33618;49.972;8.242;2023-04-24T12:29:52;3.30;;;2.30;;
47856;SDS011;33618;49.972;8.242;2023-04-24T12:32:20;2.88;;;2.10;;
47856;SDS011;33618;49.972;8.242;2023-04-24T12:34:47;3.58;;;2.17;;
47856;SDS011;33618;49.972;8.242;2023-04-24T12:37:15;3.25;;;2.20;;
47856;SDS011;33618;49.972;8.242;2023-04-24T12:39:58;2.22;;;2.10;;
47856;SDS011;33618;49.972;8.242;2023-04-24T12:42:35;2.83;;;2.20;;
47856;SDS011;33618;49.972;8.242;2023-04-24T12:45:07;3.00;;;2.20;;
47856;SDS011;33618;49.972;8.242;2023-04-24T12:47:35;4.25;;;2.17;;
47856;SDS011;33618;49.972;8.242;2023-04-24T12:50:02;3.40;;;2.20;;
47856;SDS011;33618;49.972;8.242;2023-04-24T12:52:29;3.00;;;2.28;;
47856;SDS011;33618;49.972;8.242;2023-04-24T12:54:58;3.00;;;2.65;;
47856;SDS011;33618;49.972;8.242;2023-04-24T12:57:29;2.53;;;2.33;;
47856;SDS011;33618;49.972;8.242;2023-04-24T12:59:57;2.90;;;2.40;;
47856;SDS011;33618;49.972;8.242;2023-04-24T13:02:25;2.90;;;2.28;;
47856;SDS011;33618;49.972;8.242;2023-04-24T13:04:55;2.67;;;2.42;;
47856;SDS011;33618;49.972;8.242;2023-04-24T13:07:22;2.80;;;2.60;;
47856;SDS011;33618;49.972;8.242;2023-04-24T13:09:49;4.38;;;2.47;;
47856;SDS011;33618;49.972;8.242;2023-04-24T13:12:17;3.58;;;2.70;;
47856;SDS011;33618;49.972;8.242;2023-04-24T13:14:45;2.60;;;2.20;;
47856;SDS011;33618;49.972;8.242;2023-04-24T13:17:12;2.85;;;2.60;;
47856;SDS011;33618;49.972;8.242;2023-04-24T13:19:41;3.08;;;2.28;;
47856;SDS011;33618;49.972;8.242;2023-04-24T13:22:09;2.70;;;2.50;;
47856;SDS011;33618;49.972;8.242;2023-04-24T13:24:37;4.57;;;3.03;;
47856;SDS011;33618;49.972;8.242;2023-04-24T13:27:05;3.38;;;2.55;;
47856;SDS011;33618;49.972;8.242;2023-04-24T13:29:33;4.18;;;2.92;;
47856;SDS011;33618;49.972;8.242;2023-04-24T13:31:59;4.00;;;2.97;;
47856;SDS011;33618;49.972;8.242;2023-04-24T13:34:26;3.10;;;2.85;;
47856;SDS011;33618;49.972;8.242;2023-04-24T13:36:54;4.45;;;2.95;;
47856;SDS011;33618;49.972;8.242;2023-04-24T13:39:22;3.40;;;2.70;;
47856;SDS011;33618;49.972;8.242;2023-04-24T13:41:50;2.47;;;2.25;;
47856;SDS011;33618;49.972;8.242;2023-04-24T13:44:17;4.60;;;2.85;;
47856;SDS011;33618;49.972;8.242;2023-04-24T13:46:46;3.78;;;2.75;;
47856;SDS011;33618;49.972;8.242;2023-04-24T13:49:14;6.07;;;2.70;;
47856;SDS011;33618;49.972;8.242;2023-04-24T13:51:42;4.07;;;2.40;;
47856;SDS011;33618;49.972;8.242;2023-04-24T13:54:09;2.63;;;2.22;;
47856;SDS011;33618;49.972;8.242;2023-04-24T14:24:10;2.97;;;2.47;;
47856;SDS011;33618;49.972;8.242;2023-04-24T14:26:36;3.13;;;2.80;;
47856;SDS011;33618;49.972;8.242;2023-04-24T14:29:03;2.80;;;2.60;;
47856;SDS011;33618;49.972;8.242;2023-04-24T14:31:39;2.50;;;2.30;;
47856;SDS011;33618;49.972;8.242;2023-04-24T14:34:07;2.80;;;2.60;;
47856;SDS011;33618;49.972;8.242;2023-04-24T14:36:33;4.47;;;2.65;;
47856;SDS011;33618;49.972;8.242;2023-04-24T14:39:01;3.92;;;2.50;;
47856;SDS011;33618;49.972;8.242;2023-04-24T14:41:32;2.63;;;2.42;;
47856;SDS011;33618;49.972;8.242;2023-04-24T14:44:02;3.65;;;2.60;;
47856;SDS011;33618;49.972;8.242;2023-04-24T14:46:29;4.07;;;3.00;;
47856;SDS011;33618;49.972;8.242;2023-04-24T14:48:56;3.75;;;2.40;;
47856;SDS011;33618;49.972;8.242;2023-04-24T14:51:25;5.28;;;2.53;;
47856;SDS011;33618;49.972;8.242;2023-04-24T14:53:52;3.33;;;2.72;;
47856;SDS011;33618;49.972;8.242;2023-04-24T14:56:19;3.15;;;2.47;;
47856;SDS011;33618;49.972;8.242;2023-04-24T14:58:46;2.50;;;2.30;;
47856;SDS011;33618;49.972;8.242;2023-04-24T15:01:13;4.15;;;2.53;;
47856;SDS011;33618;49.972;8.242;2023-04-24T15:03:40;2.80;;;2.40;;
47856;SDS011;33618;49.972;8.242;2023-04-24T15:06:08;3.45;;;2.30;;
47856;SDS011;33618;49.972;8.242;2023-04-24T15:08:35;4.07;;;2.50;;
47856;SDS011;33618;49.972;8.242;2023-04-24T15:11:01;2.50;;;2.30;;
47856;SDS011;33618;49.972;8.242;2023-04-24T15:13:28;2.85;;;2.50;;
47856;SDS011;33618;49.972;8.242;2023-04-24T15:15:55;3.65;;;2.70;;
47856;SDS011;33618;49.972;8.242;2023-04-24T15:18:22;3.97;;;2.47;;
47856;SDS011;33618;49.972;8.242;2023-04-24T15:20:49;4.60;;;2.50;;
47856;SDS011;33618;49.972;8.242;2023-04-24T15:23:16;3.00;;;2.65;;
47856;SDS011;33618;49.972;8.242;2023-04-24T15:25:42;3.40;;;2.55;;
47856;SDS011;33618;49.972;8.242;2023-04-24T15:28:09;2.50;;;2.30;;
47856;SDS011;33618;49.972;8.242;2023-04-24T15:30:36;3.67;;;2.58;;
47856;SDS011;33618;49.972;8.242;2023-04-24T15:33:03;3.28;;;2.40;;
47856;SDS011;33618;49.972;8.242;2023-04-24T15:35:30;3.00;;;2.50;;
47856;SDS011;33618;49.972;8.242;2023-04-24T15:37:57;4.25;;;2.60;;
47856;SDS011;33618;49.972;8.242;2023-04-24T15:40:24;2.72;;;2.50;;
47856;SDS011;33618;49.972;8.242;2023-04-24T15:42:51;3.53;;;2.72;;
47856;SDS011;33618;49.972;8.242;2023-04-24T15:45:18;3.25;;;2.80;;
47856;SDS011;33618;49.972;8.242;2023-04-24T15:47:45;2.65;;;2.45;;
47856;SDS011;33618;49.972;8.242;2023-04-24T15:50:14;2.67;;;2.47;;
47856;SDS011;33618;49.972;8.242;2023-04-24T15:52:46;3.22;;;2.63;;
47856;SDS011;33618;49.972;8.242;2023-04-24T15:55:13;4.28;;;2.60;;
47856;SDS011;33618;49.972;8.242;2023-04-24T16:52:55;2.95;;;2.10;;
47856;SDS011;33618;49.972;8.242;2023-04-24T16:55:23;3.00;;;2.45;;
47856;SDS011;33618;49.972;8.242;2023-04-24T16:57:50;2.92;;;2.33;;
47856;SDS011;33618;49.972;8.242;2023-04-24T17:00:17;4.43;;;2.30;;
47856;SDS011;33618;49.972;8.242;2023-04-24T17:02:44;2.85;;;2.28;;
47856;SDS011;33618;49.972;8.242;2023-04-24T17:05:14;2.33;;;2.20;;
47856;SDS011;33618;49.972;8.242;2023-04-24T17:07:41;2.60;;;2.40;;